Time;durP1;ratioP1;P1;durP2;ratioP2;P2;SDS_P1;SDS_P2;PMS_P1;PMS_P2;Temp;Humidity;BMP_temperature;BMP_pressure;BME280_temperature;BME280_humidity;BME280_pressure;Samples;Min_cycle;Max_cycle;Signal;HPM_P1;HPM_P2
2023/01/10 00:00:10;;;;;;;0.63;0.63;;;;;;;6.69;95.09;98440.56;5095366;28;20460;-67
2023/01/10 00:02:39;;;;;;;0.20;0.20;;;;;;;6.68;94.78;98438.06;5095320;28;20481;-67
2023/01/10 00:05:09;;;;;;;0.30;0.30;;;;;;;6.67;94.96;98436.41;5095188;28;20393;-67
2023/01/10 00:07:38;;;;;;;0.85;0.85;;;;;;;6.65;94.61;98436.38;5095191;28;20036;-67
2023/01/10 00:10:09;;;;;;;0.70;0.70;;;;;;;6.67;94.85;98441.47;5095218;28;20078;-68
2023/01/10 00:15:17;;;;;;;0.60;0.50;;;;;;;6.61;94.94;98438.94;5094755;28;20044;-67
2023/01/10 00:17:45;;;;;;;0.83;0.83;;;;;;;6.59;94.58;98433.91;5094681;28;20123;-67
2023/01/10 00:20:15;;;;;;;0.30;0.30;;;;;;;6.58;94.71;98431.34;5094998;28;20040;-67
2023/01/10 00:22:44;;;;;;;;;;;;;;;6.55;93.93;98437.28;5095052;28;20078;-67
2023/01/10 00:25:14;;;;;;;0.38;0.38;;;;;;;6.54;94.21;98435.59;5094621;28;19926;-67
2023/01/10 00:27:44;;;;;;;0.35;0.35;;;;;;;6.54;94.47;98440.69;5094582;28;20047;-68
2023/01/10 00:30:13;;;;;;;0.85;0.85;;;;;;;6.51;94.74;98440.69;5093303;28;20036;-68
2023/01/10 00:32:43;;;;;;;0.50;0.50;;;;;;;6.50;94.44;98445.78;5094728;28;20040;-68
2023/01/10 00:35:12;;;;;;;0.40;0.40;;;;;;;6.51;94.07;98450.81;5094670;28;20078;-68
2023/01/10 00:37:41;;;;;;;0.40;0.40;;;;;;;6.50;94.14;98454.19;5094598;28;20147;-68
2023/01/10 00:40:11;;;;;;;0.20;0.20;;;;;;;6.47;94.14;98459.28;5094335;28;20079;-68
2023/01/10 00:45:21;;;;;;;0.30;0.30;;;;;;;6.42;93.71;98461.00;5094161;28;20127;-68
2023/01/10 00:47:50;;;;;;;0.30;0.30;;;;;;;6.39;93.72;98458.47;5094178;28;20391;-67
2023/01/10 00:50:19;;;;;;;1.17;0.98;;;;;;;6.37;93.80;98472.00;5094077;28;20074;-67
2023/01/10 00:52:48;;;;;;;0.35;0.35;;;;;;;6.35;93.24;98469.47;5094112;28;20068;-68
2023/01/10 00:55:17;;;;;;;0.30;0.30;;;;;;;6.32;93.43;98469.47;5093764;28;20101;-67
2023/01/10 00:57:47;;;;;;;1.70;1.13;;;;;;;6.31;93.45;98477.91;5093933;28;20051;-68
2023/01/10 01:00:17;;;;;;;0.77;0.77;;;;;;;6.29;93.29;98484.69;5094338;28;20127;-67
2023/01/10 01:02:47;;;;;;;0.52;0.52;;;;;;;6.26;92.85;98484.72;5093924;28;20566;-67
2023/01/10 01:05:16;;;;;;;0.50;0.50;;;;;;;6.25;93.02;98502.44;5093908;28;20048;-67
2023/01/10 01:07:48;;;;;;;1.27;0.90;;;;;;;6.23;93.47;98507.50;5093905;28;20185;-68
2023/01/10 01:13:00;;;;;;;0.77;0.77;;;;;;;6.18;92.97;98509.22;5094146;28;20512;-68
2023/01/10 01:15:29;;;;;;;0.57;0.57;;;;;;;6.20;92.83;98522.72;5094095;28;20048;-67
2023/01/10 01:17:58;;;;;;;0.35;0.35;;;;;;;6.21;92.71;98515.97;5093669;28;20123;-67
2023/01/10 01:20:27;;;;;;;0.40;0.40;;;;;;;6.18;93.03;98521.88;5094018;28;20040;-68
2023/01/10 01:22:56;;;;;;;;;;;;;;;6.15;92.85;98532.00;5094731;28;20062;-67
2023/01/10 01:25:25;;;;;;;0.40;0.40;;;;;;;6.07;92.67;98531.16;5093961;28;20006;-67
2023/01/10 01:27:54;;;;;;;0.50;0.50;;;;;;;6.08;92.58;98537.94;5093604;28;20048;-68
2023/01/10 01:30:24;;;;;;;0.40;0.40;;;;;;;6.08;92.64;98543.00;5093628;28;20071;-68
2023/01/10 01:32:53;;;;;;;0.40;0.40;;;;;;;6.08;92.66;98545.53;5094250;28;20130;-67
2023/01/10 01:35:22;;;;;;;1.05;1.00;;;;;;;6.07;92.16;98548.88;5093807;28;20051;-68
2023/01/10 01:37:51;;;;;;;0.40;0.40;;;;;;;6.04;92.56;98554.84;5097921;28;20085;-67
2023/01/10 01:40:22;;;;;;;0.30;0.30;;;;;;;6.04;92.19;98546.38;5097698;28;20047;-68
2023/01/10 01:42:54;;;;;;;0.52;0.52;;;;;;;6.03;92.85;98552.28;5097999;28;20409;-67
2023/01/10 01:45:37;;;;;;;0.43;0.43;;;;;;;6.02;92.89;98545.53;5097646;28;20048;-68
2023/01/10 01:48:17;;;;;;;0.40;0.40;;;;;;;6.05;92.01;98548.06;5097887;28;20056;-68
2023/01/10 01:50:53;;;;;;;0.20;0.20;;;;;;;6.03;92.77;98552.28;5097923;28;20071;-68
2023/01/10 01:53:27;;;;;;;0.40;0.40;;;;;;;5.96;92.28;98550.59;5097545;28;20044;-67
2023/01/10 01:56:01;;;;;;;0.40;0.40;;;;;;;6.00;92.32;98557.34;5097368;28;20124;-69
2023/01/10 01:58:38;;;;;;;0.20;0.20;;;;;;;6.00;92.22;98563.25;5097304;28;20051;-68
2023/01/10 02:01:08;;;;;;;0.30;0.30;;;;;;;5.99;92.43;98565.81;5097733;28;20044;-68
2023/01/10 02:03:38;;;;;;;0.38;0.38;;;;;;;6.00;92.56;98564.94;5097400;28;20052;-68
2023/01/10 02:06:07;;;;;;;0.40;0.40;;;;;;;5.98;92.32;98572.53;5097305;28;20040;-68
2023/01/10 02:08:37;;;;;;;0.65;0.65;;;;;;;5.97;92.78;98577.63;5097242;28;20082;-68
2023/01/10 02:11:09;;;;;;;0.35;0.35;;;;;;;5.99;92.71;98565.81;5097203;28;20036;-68
2023/01/10 02:13:41;;;;;;;0.47;0.47;;;;;;;5.99;92.24;98573.41;5097170;28;20048;-68
2023/01/10 02:16:12;;;;;;;0.30;0.30;;;;;;;5.99;92.49;98568.34;5097120;28;20093;-68
2023/01/10 02:18:42;;;;;;;0.60;0.60;;;;;;;5.97;92.36;98577.63;5096962;28;20052;-68
2023/01/10 02:21:40;;;;;;;0.50;0.50;;;;;;;5.97;92.42;98585.22;5097322;28;20546;-68
2023/01/10 02:24:32;;;;;;;0.30;0.30;;;;;;;5.95;92.52;98587.72;5097272;28;20097;-68
2023/01/10 02:27:27;;;;;;;0.40;0.40;;;;;;;5.89;92.39;98599.56;5096877;28;20052;-68
2023/01/10 02:30:27;;;;;;;0.30;0.30;;;;;;;5.89;92.98;98599.56;5095491;28;20052;-68
2023/01/10 02:33:04;;;;;;;0.50;0.50;;;;;;;5.88;92.45;98601.22;5096792;28;20078;-68
2023/01/10 02:35:53;;;;;;;0.20;0.20;;;;;;;5.88;92.35;98603.78;5097058;28;20048;-67
2023/01/10 02:38:35;;;;;;;0.30;0.30;;;;;;;5.86;92.20;98602.06;5096830;28;20541;-68
2023/01/10 02:41:15;;;;;;;0.40;0.40;;;;;;;5.87;92.39;98608.84;5096618;28;20051;-68
2023/01/10 02:43:47;;;;;;;;;;;;;;;5.87;92.97;98604.63;5097304;28;20047;-68
2023/01/10 02:46:23;;;;;;;0.60;0.60;;;;;;;5.82;92.70;98605.44;5096502;28;19963;-67
2023/01/10 02:48:54;;;;;;;0.40;0.40;;;;;;;5.83;92.12;98609.66;5096721;28;20514;-68
2023/01/10 02:51:26;;;;;;;0.50;0.50;;;;;;;5.86;92.51;98599.53;5096707;28;20091;-67
2023/01/10 02:54:01;;;;;;;0.50;0.50;;;;;;;5.84;92.57;98611.34;5096326;28;20516;-67
2023/01/10 02:57:00;;;;;;;0.40;0.40;;;;;;;5.84;92.54;98613.88;5096122;28;20052;-68
2023/01/10 02:59:53;;;;;;;0.30;0.30;;;;;;;5.84;92.52;98616.41;5096137;28;20040;-67
2023/01/10 03:02:37;;;;;;;0.30;0.30;;;;;;;5.84;92.78;98616.41;5096240;28;20051;-67
2023/01/10 03:05:18;;;;;;;2.95;0.88;;;;;;;5.81;92.51;98621.44;5096455;28;20048;-67
2023/01/10 03:07:56;;;;;;;0.40;0.40;;;;;;;5.81;92.66;98617.22;5096511;28;20494;-67
2023/01/10 03:10:32;;;;;;;0.40;0.40;;;;;;;5.80;92.59;98614.72;5096058;28;20097;-67
2023/01/10 03:13:05;;;;;;;0.50;0.50;;;;;;;5.78;92.66;98613.88;5096342;28;20109;-67
2023/01/10 03:15:37;;;;;;;0.45;0.45;;;;;;;5.74;92.67;98619.75;5095971;28;20052;-67
2023/01/10 03:18:11;;;;;;;0.40;0.40;;;;;;;5.73;92.43;98616.41;5096159;28;20127;-68
2023/01/10 03:20:46;;;;;;;0.32;0.32;;;;;;;5.73;92.56;98615.56;5096189;28;20058;-67
2023/01/10 03:23:16;;;;;;;0.30;0.30;;;;;;;5.71;92.30;98617.25;5096145;28;20090;-68
2023/01/10 03:25:47;;;;;;;0.30;0.30;;;;;;;5.73;92.20;98615.56;5096089;28;20052;-68
2023/01/10 03:28:22;;;;;;;0.40;0.40;;;;;;;5.71;92.33;98614.72;5096065;28;20040;-67
2023/01/10 03:30:54;;;;;;;0.20;0.20;;;;;;;5.69;92.24;98619.75;5095637;28;20081;-67
2023/01/10 03:33:27;;;;;;;0.30;0.30;;;;;;;5.69;92.01;98626.50;5095608;28;20071;-67
2023/01/10 03:36:09;;;;;;;0.30;0.30;;;;;;;5.72;92.31;98621.44;5095572;28;20044;-67
2023/01/10 03:38:46;;;;;;;0.30;0.30;;;;;;;5.68;92.19;98629.88;5095507;28;20036;-67
2023/01/10 03:41:22;;;;;;;0.40;0.40;;;;;;;5.69;92.33;98636.63;5095459;28;20059;-67
2023/01/10 03:46:41;;;;;;;0.50;0.50;;;;;;;5.66;91.85;98637.50;5095349;28;20127;-67
2023/01/10 03:49:12;;;;;;;0.40;0.40;;;;;;;5.66;92.28;98641.69;5095344;28;20040;-67
2023/01/10 03:51:44;;;;;;;0.40;0.40;;;;;;;5.67;92.08;98648.44;5095247;28;20051;-67
2023/01/10 03:54:15;;;;;;;0.38;0.38;;;;;;;5.64;92.12;98653.50;5095515;28;20044;-67
2023/01/10 03:56:46;;;;;;;0.40;0.40;;;;;;;5.63;92.13;98652.66;5095194;28;20153;-67
2023/01/10 03:59:15;;;;;;;0.50;0.50;;;;;;;5.62;92.04;98650.94;5094588;28;20067;-67
2023/01/10 04:01:44;;;;;;;0.38;0.38;;;;;;;5.59;92.30;98658.53;5095272;28;20394;-67
2023/01/10 04:04:13;;;;;;;0.40;0.40;;;;;;;5.58;91.14;98656.00;5095609;28;20497;-67
2023/01/10 04:06:43;;;;;;;0.40;0.40;;;;;;;5.55;91.74;98672.03;5094966;28;20039;-66
2023/01/10 04:09:12;;;;;;;0.30;0.30;;;;;;;5.56;91.68;98676.25;5094954;28;20060;-68
2023/01/10 04:11:41;;;;;;;0.40;0.40;;;;;;;5.56;92.06;98688.06;5094815;28;20127;-67
2023/01/10 04:14:10;;;;;;;0.20;0.20;;;;;;;5.55;92.20;98693.94;5094815;28;20122;-67
2023/01/10 04:16:38;;;;;;;0.30;0.30;;;;;;;5.54;91.80;98697.34;5094780;28;20074;-66
2023/01/10 04:19:07;;;;;;;1.57;1.33;;;;;;;5.54;91.79;98702.41;5094670;28;20033;-68
2023/01/10 04:21:36;;;;;;;0.45;0.45;;;;;;;5.52;91.60;98704.09;5094912;28;20459;-67
2023/01/10 04:24:07;;;;;;;0.40;0.40;;;;;;;5.51;91.67;98712.50;5094914;28;20062;-69
2023/01/10 04:26:37;;;;;;;0.50;0.50;;;;;;;5.52;91.67;98714.19;5094594;28;20044;-67
2023/01/10 04:29:06;;;;;;;0.33;0.33;;;;;;;5.52;91.64;98716.72;5094567;28;20127;-67
2023/01/10 04:31:34;;;;;;;1.00;1.00;;;;;;;5.53;90.91;98715.88;5094769;28;20048;-67
2023/01/10 04:34:03;;;;;;;0.40;0.40;;;;;;;5.50;91.19;98720.91;5094749;28;20043;-67
2023/01/10 04:36:32;;;;;;;0.40;0.40;;;;;;;5.46;91.16;98730.19;5094737;28;20312;-67
2023/01/10 04:39:01;;;;;;;0.50;0.50;;;;;;;5.46;91.34;98735.25;5094277;28;20039;-67
2023/01/10 04:41:31;;;;;;;0.40;0.40;;;;;;;5.45;91.23;98737.78;5094625;28;20461;-67
2023/01/10 04:44:00;;;;;;;0.40;0.40;;;;;;;5.45;90.89;98737.78;5094237;28;20044;-67
2023/01/10 04:46:29;;;;;;;0.20;0.20;;;;;;;5.40;90.81;98745.34;5094209;28;20048;-67
2023/01/10 04:48:58;;;;;;;0.60;0.60;;;;;;;5.42;90.68;98744.50;5094511;28;20043;-68
2023/01/10 04:51:28;;;;;;;0.43;0.43;;;;;;;5.42;90.79;98748.75;5094086;28;20044;-68
2023/01/10 04:53:56;;;;;;;;;;;;;;;5.36;90.66;98747.03;5094419;28;20051;-67
2023/01/10 04:56:26;;;;;;;1.00;1.00;;;;;;;5.38;90.12;98758.00;5093736;28;19920;-67
2023/01/10 04:58:56;;;;;;;0.50;0.50;;;;;;;5.40;90.37;98765.56;5093966;28;20040;-68
2023/01/10 05:01:26;;;;;;;0.30;0.30;;;;;;;5.39;90.58;98754.63;5094273;28;20406;-68
2023/01/10 05:03:56;;;;;;;0.50;0.50;;;;;;;5.38;90.37;98773.16;5093902;28;20051;-68
2023/01/10 05:06:25;;;;;;;0.47;0.47;;;;;;;5.36;90.31;98767.25;5093979;28;20210;-68
2023/01/10 05:08:54;;;;;;;0.50;0.50;;;;;;;5.35;90.82;98767.25;5093860;28;20052;-67
2023/01/10 05:11:22;;;;;;;0.50;0.50;;;;;;;5.32;90.32;98778.22;5093346;28;20036;-67
2023/01/10 05:13:51;;;;;;;0.50;0.50;;;;;;;5.27;90.04;98774.81;5093799;28;20440;-67
2023/01/10 05:16:22;;;;;;;0.50;0.50;;;;;;;5.28;90.23;98776.47;5093869;28;20036;-69
2023/01/10 05:18:52;;;;;;;0.73;0.73;;;;;;;5.27;90.25;98779.88;5094973;28;20382;-67
2023/01/10 05:21:20;;;;;;;0.47;0.47;;;;;;;5.27;89.94;98774.81;5092773;28;20068;-67
2023/01/10 05:23:50;;;;;;;0.40;0.40;;;;;;;5.26;90.33;98769.72;5094498;28;20482;-67
2023/01/10 05:26:21;;;;;;;0.40;0.40;;;;;;;5.26;90.15;98772.25;5093701;28;20123;-67
2023/01/10 05:28:51;;;;;;;0.73;0.73;;;;;;;5.29;89.83;98780.72;5093692;28;20051;-67
2023/01/10 05:31:21;;;;;;;0.50;0.50;;;;;;;5.27;90.17;98784.91;5093589;28;20044;-67
2023/01/10 05:33:51;;;;;;;0.50;0.50;;;;;;;5.26;90.14;98787.41;5093589;28;20076;-67
2023/01/10 05:36:20;;;;;;;0.50;0.50;;;;;;;5.25;89.95;98781.53;5093911;28;20043;-67
2023/01/10 05:38:49;;;;;;;0.50;0.50;;;;;;;5.26;90.16;98782.38;5093515;28;20036;-67
2023/01/10 05:41:18;;;;;;;0.30;0.30;;;;;;;5.25;89.92;98786.59;5093441;28;20036;-67
2023/01/10 05:43:47;;;;;;;0.50;0.50;;;;;;;5.26;89.86;98779.84;5094105;28;20478;-67
2023/01/10 05:46:16;;;;;;;0.40;0.40;;;;;;;5.27;89.68;98784.91;5093423;28;20114;-67
2023/01/10 05:48:46;;;;;;;0.50;0.50;;;;;;;5.24;89.98;98782.38;5093440;28;20291;-67
2023/01/10 05:51:15;;;;;;;0.40;0.40;;;;;;;5.27;89.68;98795.03;5093448;28;20754;-66
2023/01/10 05:53:44;;;;;;;0.50;0.50;;;;;;;5.28;89.99;98801.78;5093429;28;20232;-67
2023/01/10 05:56:13;;;;;;;0.50;0.50;;;;;;;5.26;89.44;98808.50;5093116;28;20056;-67
2023/01/10 05:58:41;;;;;;;0.50;0.50;;;;;;;5.28;89.71;98811.88;5093355;28;20284;-66
2023/01/10 06:01:14;;;;;;;0.30;0.30;;;;;;;5.29;89.97;98823.72;5093268;28;20079;-68
2023/01/10 06:03:44;;;;;;;0.30;0.30;;;;;;;5.29;89.55;98821.19;5093343;28;20036;-67
2023/01/10 06:06:14;;;;;;;0.50;0.50;;;;;;;5.29;89.41;98813.59;5093535;28;20468;-67
2023/01/10 06:08:43;;;;;;;3.55;1.17;;;;;;;5.30;89.36;98830.44;5093650;28;20082;-68
2023/01/10 06:11:12;;;;;;;0.77;0.77;;;;;;;5.32;89.47;98830.47;5093114;28;20044;-67
2023/01/10 06:13:41;;;;;;;;;;;;;;;5.33;89.29;98829.63;5093514;28;20048;-67
2023/01/10 06:16:10;;;;;;;0.50;0.50;;;;;;;5.34;89.23;98832.19;5093167;28;19920;-66
2023/01/10 06:18:38;;;;;;;0.50;0.50;;;;;;;5.35;89.09;98836.38;5093204;28;20130;-67
2023/01/10 06:21:07;;;;;;;0.38;0.38;;;;;;;5.35;89.14;98848.22;5093202;28;20036;-66
2023/01/10 06:23:38;;;;;;;0.50;0.50;;;;;;;5.35;88.83;98843.97;5097097;28;20039;-66
2023/01/10 06:26:07;;;;;;;0.40;0.40;;;;;;;5.36;88.73;98850.75;5097026;28;20555;-66
2023/01/10 06:28:36;;;;;;;1.85;1.15;;;;;;;5.36;88.73;98854.94;5095793;28;20052;-66
2023/01/10 06:31:05;;;;;;;0.50;0.50;;;;;;;5.37;88.31;98857.47;5096728;28;20052;-66
2023/01/10 06:33:34;;;;;;;0.47;0.47;;;;;;;5.37;88.55;98867.59;5097076;28;20371;-66
2023/01/10 06:36:03;;;;;;;0.55;0.55;;;;;;;5.37;88.61;98872.66;5096989;28;20428;-66
2023/01/10 06:38:31;;;;;;;0.40;0.40;;;;;;;5.38;88.19;98876.88;5096747;28;20497;-67
2023/01/10 06:41:11;;;;;;;0.43;0.43;;;;;;;5.39;88.73;98881.13;5095270;28;20040;-69
2023/01/10 06:43:41;;;;;;;1.15;1.05;;;;;;;5.41;88.38;98887.03;5096521;28;20048;-66
2023/01/10 06:46:10;;;;;;;0.40;0.40;;;;;;;5.42;88.20;98888.72;5096561;28;20398;-66
2023/01/10 06:48:39;;;;;;;0.57;0.57;;;;;;;5.41;88.14;98892.09;5096422;28;20047;-68
2023/01/10 06:51:07;;;;;;;0.50;0.50;;;;;;;5.40;87.96;98892.91;5096398;28;20322;-66
2023/01/10 06:53:36;;;;;;;0.60;0.60;;;;;;;5.38;88.12;98902.19;5096336;28;20040;-66
2023/01/10 06:56:08;;;;;;;0.40;0.40;;;;;;;5.37;87.94;98908.06;5096150;28;20300;-67
2023/01/10 06:58:38;;;;;;;0.40;0.40;;;;;;;5.37;87.62;98908.06;5096250;28;20093;-66
2023/01/10 07:01:07;;;;;;;;;;;;;;;5.37;87.73;98913.13;5096917;28;20040;-67
2023/01/10 07:03:36;;;;;;;0.40;0.40;;;;;;;5.36;87.75;98921.56;5096443;28;19924;-67
2023/01/10 07:06:08;;;;;;;0.40;0.40;;;;;;;5.37;87.79;98924.97;5096400;28;20067;-66
2023/01/10 07:08:38;;;;;;;0.50;0.50;;;;;;;5.35;88.11;98932.50;5096157;28;20040;-66
2023/01/10 07:11:09;;;;;;;0.60;0.60;;;;;;;5.36;87.93;98936.75;5096259;28;20505;-66
2023/01/10 07:13:38;;;;;;;0.40;0.40;;;;;;;5.36;87.55;98941.81;5096036;28;20520;-67
2023/01/10 07:16:10;;;;;;;0.50;0.50;;;;;;;5.38;87.83;98955.31;5095911;28;20105;-67
2023/01/10 07:18:41;;;;;;;0.50;0.50;;;;;;;5.40;87.78;98958.69;5095910;28;20044;-66
2023/01/10 07:21:11;;;;;;;0.40;0.40;;;;;;;5.39;87.75;98971.34;5095791;28;20075;-66
2023/01/10 07:23:40;;;;;;;0.65;0.65;;;;;;;5.38;87.66;98965.44;5094547;28;20040;-66
2023/01/10 07:26:16;;;;;;;0.40;0.40;;;;;;;5.42;87.75;98977.28;5095746;28;20044;-66
2023/01/10 07:28:45;;;;;;;0.50;0.50;;;;;;;5.42;87.53;98974.75;5096262;28;20654;-66
2023/01/10 07:31:15;;;;;;;0.60;0.60;;;;;;;5.41;87.46;98975.59;5095709;28;20132;-66
2023/01/10 07:33:44;;;;;;;1.08;1.08;;;;;;;5.41;87.81;98980.66;5094681;28;20051;-65
2023/01/10 07:36:13;;;;;;;0.50;0.50;;;;;;;5.41;87.30;98985.72;5095557;28;20130;-66
2023/01/10 07:38:41;;;;;;;0.47;0.47;;;;;;;5.42;87.21;99002.56;5095840;28;20390;-66
2023/01/10 07:41:12;;;;;;;0.40;0.40;;;;;;;5.44;87.13;99007.66;5095332;28;20312;-66
2023/01/10 07:43:41;;;;;;;0.65;0.65;;;;;;;5.45;87.07;99011.06;5095501;28;20044;-66
2023/01/10 07:46:11;;;;;;;0.67;0.67;;;;;;;5.46;87.05;99027.91;5095554;28;20032;-67
2023/01/10 07:48:41;;;;;;;2.70;2.45;;;;;;;5.47;87.00;99034.69;5095672;28;20094;-67
2023/01/10 07:51:10;;;;;;;0.88;0.88;;;;;;;5.47;87.18;99039.75;5095275;28;20085;-66
2023/01/10 07:53:39;;;;;;;0.73;0.73;;;;;;;5.49;87.30;99048.19;5095033;28;20040;-67
2023/01/10 07:56:08;;;;;;;0.60;0.60;;;;;;;5.46;86.61;99051.53;5095256;28;20056;-67
2023/01/10 07:58:38;;;;;;;1.50;1.40;;;;;;;5.52;87.36;99058.34;5095251;28;20312;-66
2023/01/10 08:01:08;;;;;;;0.50;0.50;;;;;;;5.55;86.83;99065.94;5094976;28;20051;-66
2023/01/10 08:03:36;;;;;;;0.93;0.90;;;;;;;5.56;86.88;99070.19;5097184;28;20051;-67
2023/01/10 08:06:09;;;;;;;0.52;0.52;;;;;;;5.56;86.72;99075.25;5106103;28;20490;-66
2023/01/10 08:08:38;;;;;;;0.60;0.60;;;;;;;5.53;86.16;99082.78;5101187;28;20048;-67
2023/01/10 08:11:07;;;;;;;3.92;1.45;;;;;;;5.56;86.27;99090.44;5095054;28;20551;-66
2023/01/10 08:13:38;;;;;;;0.47;0.47;;;;;;;5.57;86.61;99092.09;5094732;28;20124;-65
2023/01/10 08:16:07;;;;;;;0.50;0.50;;;;;;;5.59;86.06;99103.13;5113494;28;20100;-66
2023/01/10 08:18:37;;;;;;;0.30;0.30;;;;;;;5.61;86.01;99104.84;5115075;28;20043;-66
2023/01/10 08:21:06;;;;;;;0.50;0.50;;;;;;;5.63;85.94;99102.31;5115447;28;20441;-66
2023/01/10 08:23:35;;;;;;;0.63;0.63;;;;;;;5.63;86.11;99113.28;5113750;28;20509;-67
2023/01/10 08:26:04;;;;;;;0.40;0.40;;;;;;;5.64;86.35;99124.25;5113685;28;20455;-67
2023/01/10 08:28:33;;;;;;;0.30;0.30;;;;;;;5.66;86.17;99123.44;5101657;28;20043;-66
2023/01/10 08:31:07;;;;;;;0.60;0.57;;;;;;;5.65;85.77;99131.00;5099022;28;20042;-66
2023/01/10 08:33:38;;;;;;;0.45;0.45;;;;;;;5.64;85.95;99135.22;5103549;28;20093;-65
2023/01/10 08:36:15;;;;;;;0.50;0.50;;;;;;;5.66;86.13;99132.72;5094281;28;20127;-67
2023/01/10 08:38:44;;;;;;;0.40;0.40;;;;;;;5.68;85.92;99141.16;5094341;28;20051;-66
2023/01/10 08:41:13;;;;;;;0.43;0.43;;;;;;;5.68;86.31;99141.16;5094268;28;20040;-66
2023/01/10 08:43:41;;;;;;;0.50;0.50;;;;;;;5.67;86.57;99144.53;5094310;28;20123;-66
2023/01/10 08:46:12;;;;;;;0.47;0.47;;;;;;;5.68;85.94;99153.81;5093996;28;20048;-66
2023/01/10 08:48:41;;;;;;;0.98;0.85;;;;;;;5.68;86.26;99161.41;5094119;28;20044;-66
2023/01/10 08:51:10;;;;;;;0.45;0.45;;;;;;;5.69;86.08;99163.09;5094467;28;20040;-66
2023/01/10 08:53:39;;;;;;;0.40;0.40;;;;;;;5.68;86.60;99162.28;5094139;28;20098;-66
2023/01/10 08:56:09;;;;;;;0.60;0.60;;;;;;;5.72;86.77;99179.19;5094037;28;20055;-66
2023/01/10 08:58:37;;;;;;;;;;;;;;;5.71;86.15;99177.47;5094470;28;20055;-66
2023/01/10 09:01:07;;;;;;;0.40;0.40;;;;;;;5.73;86.06;99192.69;5093881;28;19920;-66
2023/01/10 09:03:38;;;;;;;0.50;0.50;;;;;;;5.75;86.25;99189.34;5094002;28;20076;-66
2023/01/10 09:06:08;;;;;;;0.90;0.90;;;;;;;5.76;86.77;99195.28;5094303;28;20095;-66
2023/01/10 09:08:37;;;;;;;;;;;;;;;5.75;86.28;99209.59;5094379;28;20382;-65
2023/01/10 09:11:06;;;;;;;1.33;1.23;;;;;;;5.73;86.94;99216.34;5093323;28;19955;-65
2023/01/10 09:13:35;;;;;;;0.50;0.50;;;;;;;5.79;87.31;99233.25;5092718;28;20055;-66
2023/01/10 09:16:04;;;;;;;0.68;0.68;;;;;;;5.82;86.78;99230.75;5093798;28;20048;-66
2023/01/10 09:18:33;;;;;;;;;;;;;;;5.82;87.01;99235.81;5093375;28;20071;-65
2023/01/10 09:21:03;;;;;;;0.75;0.75;;;;;;;5.84;87.02;99246.81;5093482;28;20373;-65
2023/01/10 09:23:33;;;;;;;0.30;0.30;;;;;;;5.84;87.51;99251.88;5093666;28;20510;-65
2023/01/10 09:26:07;;;;;;;0.63;0.63;;;;;;;5.84;86.93;99262.91;5093103;28;20048;-66
2023/01/10 09:28:36;;;;;;;0.60;0.60;;;;;;;5.86;87.29;99265.44;5100846;28;20129;-65
2023/01/10 09:31:07;;;;;;;0.40;0.40;;;;;;;5.86;87.12;99258.69;5102471;28;20173;-65
2023/01/10 09:33:36;;;;;;;0.50;0.50;;;;;;;5.87;86.88;99259.56;5093848;28;20345;-66
2023/01/10 09:36:16;;;;;;;0.52;0.52;;;;;;;5.88;87.26;99261.22;5094178;28;20036;-66
2023/01/10 09:38:45;;;;;;;0.40;0.40;;;;;;;5.89;87.36;99260.41;5093858;28;20044;-66
2023/01/10 09:41:37;;;;;;;0.40;0.40;;;;;;;5.92;87.59;99260.44;5093515;28;20046;-65
2023/01/10 09:44:15;;;;;;;0.30;0.30;;;;;;;5.90;87.12;99267.19;5101744;28;20088;-65
2023/01/10 09:46:54;;;;;;;0.50;0.50;;;;;;;5.91;87.53;99273.94;5103823;28;20483;-65
2023/01/10 09:49:36;;;;;;;0.30;0.30;;;;;;;5.91;87.01;99276.47;5103732;28;20089;-66
2023/01/10 09:52:20;;;;;;;0.45;0.45;;;;;;;5.92;87.02;99278.19;5109483;28;20486;-65
2023/01/10 09:54:52;;;;;;;0.50;0.50;;;;;;;5.90;87.59;99283.22;5113851;28;20137;-66
2023/01/10 09:57:23;;;;;;;0.40;0.40;;;;;;;5.91;87.14;99281.53;5115622;28;20035;-66
2023/01/10 09:59:53;;;;;;;0.50;0.50;;;;;;;5.93;87.38;99285.78;5117595;28;20044;-66
2023/01/10 10:02:30;;;;;;;0.40;0.40;;;;;;;5.92;87.19;99283.25;5117745;28;20048;-66
2023/01/10 10:05:09;;;;;;;0.30;0.30;;;;;;;5.95;87.10;99283.28;5111882;28;20066;-66
2023/01/10 10:07:39;;;;;;;0.50;0.50;;;;;;;5.95;87.04;99288.34;5096912;28;20062;-65
2023/01/10 10:10:15;;;;;;;0.50;0.50;;;;;;;5.93;86.74;99282.41;5097340;28;20105;-66
2023/01/10 10:12:52;;;;;;;0.68;0.68;;;;;;;5.96;86.63;99290.03;5097132;28;20043;-65
2023/01/10 10:15:32;;;;;;;0.55;0.55;;;;;;;5.95;86.69;99298.47;5097079;28;20067;-65
2023/01/10 10:18:14;;;;;;;0.30;0.30;;;;;;;5.94;86.71;99291.72;5096882;28;20050;-65
2023/01/10 10:20:51;;;;;;;0.70;0.70;;;;;;;5.95;86.65;99295.94;5097225;28;20040;-65
2023/01/10 10:23:45;;;;;;;0.40;0.40;;;;;;;5.97;86.66;99302.69;5097182;28;20210;-66
2023/01/10 10:26:22;;;;;;;0.40;0.40;;;;;;;5.96;86.92;99305.22;5096682;28;20064;-66
2023/01/10 10:29:16;;;;;;;0.40;0.40;;;;;;;5.99;86.59;99302.75;5097234;28;20093;-65
2023/01/10 10:31:58;;;;;;;0.60;0.60;;;;;;;5.98;87.00;99303.56;5096741;28;20050;-65
2023/01/10 10:34:35;;;;;;;0.50;0.50;;;;;;;5.98;86.49;99308.63;5096675;28;20050;-65
2023/01/10 10:37:11;;;;;;;0.50;0.50;;;;;;;6.00;87.07;99304.41;5097569;28;20097;-66
2023/01/10 10:39:45;;;;;;;0.60;0.60;;;;;;;6.00;86.76;99312.88;5096771;28;20395;-65
2023/01/10 10:42:18;;;;;;;0.70;0.70;;;;;;;6.02;86.89;99310.38;5095572;28;20044;-65
2023/01/10 10:44:53;;;;;;;0.45;0.45;;;;;;;6.03;86.81;99312.06;5096919;28;20051;-66
2023/01/10 10:47:23;;;;;;;0.70;0.70;;;;;;;6.06;86.86;99323.09;5095177;28;20458;-65
2023/01/10 10:50:02;;;;;;;0.85;0.85;;;;;;;6.07;87.33;99318.84;5096358;28;20044;-65
2023/01/10 10:52:34;;;;;;;3.75;1.40;;;;;;;6.11;87.20;99328.22;5096403;28;20467;-65
2023/01/10 10:55:12;;;;;;;0.35;0.35;;;;;;;6.12;87.16;99327.34;5096500;28;20074;-66
2023/01/10 10:57:43;;;;;;;0.73;0.73;;;;;;;6.14;86.88;99330.78;5096362;28;20047;-66
2023/01/10 11:00:29;;;;;;;0.40;0.40;;;;;;;6.13;86.98;99329.06;5101183;28;20051;-66
2023/01/10 11:03:03;;;;;;;0.30;0.30;;;;;;;6.15;86.97;99329.94;5113584;28;20122;-66
2023/01/10 11:05:37;;;;;;;0.45;0.45;;;;;;;6.19;86.91;99331.66;5096160;28;20131;-65
2023/01/10 11:08:10;;;;;;;0.60;0.60;;;;;;;6.22;86.31;99339.28;5094986;28;20040;-65
2023/01/10 11:10:43;;;;;;;0.40;0.40;;;;;;;6.23;86.61;99343.53;5106321;28;20040;-67
2023/01/10 11:13:21;;;;;;;0.85;0.43;;;;;;;6.27;87.04;99336.81;5098652;28;20036;-67
2023/01/10 11:15:50;;;;;;;0.40;0.40;;;;;;;6.28;86.49;99334.31;5095967;28;20056;-65
2023/01/10 11:18:26;;;;;;;0.50;0.50;;;;;;;6.30;86.41;99342.78;5098350;28;20386;-65
2023/01/10 11:20:59;;;;;;;0.57;0.57;;;;;;;6.33;86.58;99340.28;5103898;28;20039;-65
2023/01/10 11:23:41;;;;;;;0.40;0.40;;;;;;;6.38;86.23;99336.09;5114343;28;20092;-65
2023/01/10 11:26:25;;;;;;;0.30;0.30;;;;;;;6.39;86.34;99334.41;5109757;28;20059;-65
2023/01/10 11:29:07;;;;;;;0.60;0.60;;;;;;;6.43;86.24;99333.63;5097446;28;20106;-66
2023/01/10 11:31:37;;;;;;;0.40;0.40;;;;;;;6.46;86.00;99339.56;5095695;28;20127;-66
2023/01/10 11:34:19;;;;;;;0.40;0.40;;;;;;;6.50;85.43;99341.28;5100478;28;20527;-65
2023/01/10 11:36:58;;;;;;;1.30;1.20;;;;;;;6.55;85.54;99343.88;5104315;28;20138;-65
2023/01/10 11:39:29;;;;;;;0.40;0.40;;;;;;;6.54;85.45;99343.03;5096068;28;20129;-64
2023/01/10 11:42:28;;;;;;;0.30;0.30;;;;;;;6.54;84.53;99343.03;5112218;28;20063;-65
2023/01/10 11:45:15;;;;;;;;;;;;;;;6.56;84.81;99346.44;5099100;28;20071;-64
2023/01/10 11:47:48;;;;;;;0.30;0.30;;;;;;;6.57;84.47;99358.28;5115724;28;19919;-65
2023/01/10 11:50:22;;;;;;;3.83;0.73;;;;;;;6.58;84.18;99365.03;5116063;28;20051;-66
2023/01/10 11:52:52;;;;;;;0.30;0.30;;;;;;;6.59;84.15;99351.53;5112010;28;20047;-66
2023/01/10 11:55:21;;;;;;;;;;;;;;;6.61;84.19;99357.47;5107207;28;20047;-65
2023/01/10 11:58:06;;;;;;;0.60;0.60;;;;;;;6.65;83.93;99351.56;5110809;28;19966;-65
2023/01/10 12:00:41;;;;;;;0.40;0.40;;;;;;;6.65;83.50;99366.78;5115526;28;20047;-66
2023/01/10 12:03:21;;;;;;;0.40;0.40;;;;;;;6.66;83.37;99363.44;5108427;28;20135;-66
2023/01/10 12:05:52;;;;;;;0.40;0.40;;;;;;;6.67;83.54;99361.75;5099100;28;20051;-65
2023/01/10 12:08:27;;;;;;;0.40;0.40;;;;;;;6.68;83.72;99366.81;5095183;28;20135;-65
2023/01/10 12:11:00;;;;;;;0.40;0.40;;;;;;;6.67;83.08;99370.19;5100141;28;20554;-67
2023/01/10 12:13:43;;;;;;;0.20;0.20;;;;;;;6.67;83.31;99370.19;5101575;28;20059;-65
2023/01/10 12:16:20;;;;;;;2.45;1.15;;;;;;;6.72;82.91;99367.69;5095124;28;20089;-65
2023/01/10 12:18:51;;;;;;;0.40;0.40;;;;;;;6.75;82.82;99367.72;5094878;28;20040;-66